EmailTwitter


Surface observations / France / LFBO (07630)

Regions: Quebec | Canada | USA | Europe | France | UK | Elsewhere
Station
Display
Info & Location for LFBO (07630) | Help decoding METAR

Weather Conditions observed on 2017/12/12 at 15:30 UTC at TOULOUSE/BLAGNAC, FR (LFBO)

Sky conditions: few clouds.

Temperature: 8.0 Celsius.

Dewpoint: -1.0 Celsius.

Relative Humidity: 53%

Windchill Factor: 5.

Winds: Northwest at 15 km/h or 8 knots.

Mean Sea level Pressure: 101.80 kilopascals.

Horizontal visibility: 6.21 statute miles or 9.94 kilometers.

Coded METAR:

LFBO 121530Z AUTO 31008KT 9999 FEW027 08/M01 Q1018 NOSIG=